Accueil
METAR-TAF:

METAR-TAF

Aéroports :

North Myrtle Beach, Caroline du Sud, États-Unis

latitude: 33-48-42N, longitude: 078-43-26W, altitude: 10 m

Observation

Le bulletin a été fait il y a 1 heure et 8 minutes, à 09:53 UTC
Vent 5 kt de nord
Température 13°C
Humidité 44%
Pression 1013 hPa
Visibilité: 16.1 km
Ciel clair

METAR: KCRE 040953Z AUTO 36005KT 10SM CLR 13/01 A2991 RMK AO1 SLP129 T01280011

Heure: 07:01 (11:01 UTC)

Prévision

Le bulletin a été fait il y a 5 heures et 41 minutes, à 05:20 UTC
Prévision valable du 04 à 06 UTC au 05 à 06 UTC
Vent 3 kt de direction variable
Visibilité: 10 km
Ciel clair
A partir de 04 à 1300 UTC
Vent 7 kt de nord/nord-est
Visibilité: 10 km
Nuages épars à une hauteur de 25000 ft
A partir de 04 à 1800 UTC
Vent 9 kt de est/sud-est
Visibilité: 10 km
Nuages épars à une hauteur de 20000 ft

TAF: KCRE 040520Z 0406/0506 VRB03KT P6SM SKC FM041300 02007KT P6SM SCT250 FM041800 11009KT P6SM SCT200

Observations et prévisions météorologiques de plus de 4000 aéroports (messages METAR et TAF).

Les stations disponibles sont représentées par des disques jaunes et rouges sur la carte.

Passer la souris dessus pour voir le nom de la station.

Cliquer dessus pour voir les observations et prévisions météorologiques.

Pour changer de carte: cliquez sur les boutons verts avec une croix noire pour zoomer, sur le bouton vert avec un tiret pour effectuer un zoom arrière, ou sur les flèches vertes pour les cartes adjacentes.


METAR-TAF: